sensor_id;sensor_type;location;lat;lon;timestamp;pressure;altitude;pressure_sealevel;temperature;humidity
69318;BME280;56457;52.190;4.440;2023-05-28T00:00:54;102346.88;;;13.52;100.00
69318;BME280;56457;52.190;4.440;2023-05-28T00:01:56;102353.03;;;13.51;100.00
69318;BME280;56457;52.190;4.440;2023-05-28T00:02:57;102348.63;;;13.53;100.00
69318;BME280;56457;52.190;4.440;2023-05-28T00:03:57;102345.13;;;13.51;100.00
69318;BME280;56457;52.190;4.440;2023-05-28T00:04:58;102346.91;;;13.55;100.00
69318;BME280;56457;52.190;4.440;2023-05-28T00:05:58;102349.53;;;13.55;100.00
69318;BME280;56457;52.190;4.440;2023-05-28T00:06:59;102348.66;;;13.54;100.00
69318;BME280;56457;52.190;4.440;2023-05-28T00:07:59;102354.78;;;13.53;100.00
69318;BME280;56457;52.190;4.440;2023-05-28T00:09:00;102339.84;;;13.52;100.00
69318;BME280;56457;52.190;4.440;2023-05-28T00:10:01;102337.22;;;13.51;100.00
69318;BME280;56457;52.190;4.440;2023-05-28T00:11:01;102335.47;;;13.48;100.00
69318;BME280;56457;52.190;4.440;2023-05-28T00:12:01;102342.44;;;13.47;100.00
69318;BME280;56457;52.190;4.440;2023-05-28T00:13:02;102335.44;;;13.50;100.00
69318;BME280;56457;52.190;4.440;2023-05-28T00:14:02;102333.69;;;13.50;100.00
69318;BME280;56457;52.190;4.440;2023-05-28T00:15:03;102326.66;;;13.51;100.00
69318;BME280;56457;52.190;4.440;2023-05-28T00:16:03;102325.78;;;13.49;100.00
69318;BME280;56457;52.190;4.440;2023-05-28T00:17:03;102327.53;;;13.45;100.00
69318;BME280;56457;52.190;4.440;2023-05-28T00:18:04;102333.66;;;13.45;100.00
69318;BME280;56457;52.190;4.440;2023-05-28T00:19:04;102329.28;;;13.46;100.00
69318;BME280;56457;52.190;4.440;2023-05-28T00:20:05;102328.41;;;13.44;100.00
69318;BME280;56457;52.190;4.440;2023-05-28T00:21:05;102323.13;;;13.44;100.00
69318;BME280;56457;52.190;4.440;2023-05-28T00:22:06;102326.63;;;13.44;100.00
69318;BME280;56457;52.190;4.440;2023-05-28T00:23:06;102321.34;;;13.41;100.00
69318;BME280;56457;52.190;4.440;2023-05-28T00:24:06;102323.09;;;13.41;100.00
69318;BME280;56457;52.190;4.440;2023-05-28T00:25:07;102321.34;;;13.40;100.00
69318;BME280;56457;52.190;4.440;2023-05-28T00:26:07;102325.72;;;13.39;100.00
69318;BME280;56457;52.190;4.440;2023-05-28T00:27:07;102327.50;;;13.39;100.00
69318;BME280;56457;52.190;4.440;2023-05-28T00:28:08;102331.00;;;13.39;100.00
69318;BME280;56457;52.190;4.440;2023-05-28T00:29:08;102333.63;;;13.39;100.00
69318;BME280;56457;52.190;4.440;2023-05-28T00:30:08;102329.25;;;13.37;100.00
69318;BME280;56457;52.190;4.440;2023-05-28T00:31:09;102332.75;;;13.37;100.00
69318;BME280;56457;52.190;4.440;2023-05-28T00:32:09;102330.13;;;13.36;100.00
69318;BME280;56457;52.190;4.440;2023-05-28T00:33:09;102337.16;;;13.35;100.00
69318;BME280;56457;52.190;4.440;2023-05-28T00:34:10;102326.63;;;13.35;100.00
69318;BME280;56457;52.190;4.440;2023-05-28T00:35:10;102328.38;;;13.36;100.00
69318;BME280;56457;52.190;4.440;2023-05-28T00:36:13;102322.22;;;13.37;100.00
69318;BME280;56457;52.190;4.440;2023-05-28T00:37:13;102323.09;;;13.36;100.00
69318;BME280;56457;52.190;4.440;2023-05-28T00:38:14;102322.19;;;13.31;100.00
69318;BME280;56457;52.190;4.440;2023-05-28T00:39:17;102315.16;;;13.35;100.00
69318;BME280;56457;52.190;4.440;2023-05-28T00:40:17;102324.81;;;13.33;100.00
69318;BME280;56457;52.190;4.440;2023-05-28T00:41:19;102325.69;;;13.35;100.00
69318;BME280;56457;52.190;4.440;2023-05-28T00:42:19;102331.88;;;13.37;100.00
69318;BME280;56457;52.190;4.440;2023-05-28T00:43:20;102330.13;;;13.36;100.00
69318;BME280;56457;52.190;4.440;2023-05-28T00:44:21;102331.84;;;13.31;100.00
69318;BME280;56457;52.190;4.440;2023-05-28T00:45:21;102331.84;;;13.31;100.00
69318;BME280;56457;52.190;4.440;2023-05-28T00:46:21;102330.94;;;13.27;100.00
69318;BME280;56457;52.190;4.440;2023-05-28T00:47:23;102337.09;;;13.26;100.00
69318;BME280;56457;52.190;4.440;2023-05-28T00:48:23;102331.84;;;13.29;100.00
69318;BME280;56457;52.190;4.440;2023-05-28T00:49:24;102330.06;;;13.28;100.00
69318;BME280;56457;52.190;4.440;2023-05-28T00:50:24;102327.44;;;13.27;100.00
69318;BME280;56457;52.190;4.440;2023-05-28T00:51:25;102333.56;;;13.23;100.00
69318;BME280;56457;52.190;4.440;2023-05-28T00:52:27;102331.75;;;13.20;100.00
69318;BME280;56457;52.190;4.440;2023-05-28T00:53:27;102331.84;;;13.23;100.00
69318;BME280;56457;52.190;4.440;2023-05-28T00:54:27;102328.28;;;13.21;100.00
69318;BME280;56457;52.190;4.440;2023-05-28T00:55:29;102328.28;;;13.21;100.00
69318;BME280;56457;52.190;4.440;2023-05-28T00:56:30;102328.28;;;13.21;100.00
69318;BME280;56457;52.190;4.440;2023-05-28T00:57:31;102325.66;;;13.21;100.00
69318;BME280;56457;52.190;4.440;2023-05-28T00:58:32;102328.25;;;13.18;100.00
69318;BME280;56457;52.190;4.440;2023-05-28T00:59:35;102333.47;;;13.10;100.00
69318;BME280;56457;52.190;4.440;2023-05-28T01:00:36;102323.75;;;13.03;100.00
69318;BME280;56457;52.190;4.440;2023-05-28T01:01:36;102343.97;;;13.01;100.00
69318;BME280;56457;52.190;4.440;2023-05-28T01:02:37;102337.78;;;12.98;100.00
69318;BME280;56457;52.190;4.440;2023-05-28T01:03:38;102336.94;;;13.02;100.00
69318;BME280;56457;52.190;4.440;2023-05-28T01:04:38;102340.44;;;13.04;100.00
69318;BME280;56457;52.190;4.440;2023-05-28T01:05:38;102338.66;;;12.97;100.00
69318;BME280;56457;52.190;4.440;2023-05-28T01:06:39;102343.94;;;12.98;100.00
69318;BME280;56457;52.190;4.440;2023-05-28T01:07:39;102345.72;;;13.02;100.00
69318;BME280;56457;52.190;4.440;2023-05-28T01:08:40;102346.59;;;13.01;100.00
69318;BME280;56457;52.190;4.440;2023-05-28T01:09:40;102341.31;;;13.00;100.00
69318;BME280;56457;52.190;4.440;2023-05-28T01:10:41;102342.16;;;12.96;100.00
69318;BME280;56457;52.190;4.440;2023-05-28T01:11:42;102341.31;;;13.00;100.00
69318;BME280;56457;52.190;4.440;2023-05-28T01:12:43;102339.59;;;13.05;100.00
69318;BME280;56457;52.190;4.440;2023-05-28T01:13:44;102336.94;;;13.02;100.00
69318;BME280;56457;52.190;4.440;2023-05-28T01:14:45;102333.41;;;13.01;100.00
69318;BME280;56457;52.190;4.440;2023-05-28T01:15:46;102337.81;;;12.99;100.00
69318;BME280;56457;52.190;4.440;2023-05-28T01:16:46;102333.41;;;13.00;100.00
69318;BME280;56457;52.190;4.440;2023-05-28T01:17:49;102335.13;;;12.98;100.00
69318;BME280;56457;52.190;4.440;2023-05-28T01:18:52;102339.50;;;12.91;100.00
69318;BME280;56457;52.190;4.440;2023-05-28T01:19:55;102338.66;;;12.93;100.00
69318;BME280;56457;52.190;4.440;2023-05-28T01:20:55;102335.13;;;12.96;100.00
69318;BME280;56457;52.190;4.440;2023-05-28T01:21:56;102334.25;;;12.92;100.00
69318;BME280;56457;52.190;4.440;2023-05-28T01:23:08;102335.13;;;12.94;100.00
69318;BME280;56457;52.190;4.440;2023-05-28T01:24:11;102330.75;;;12.95;100.00
69318;BME280;56457;52.190;4.440;2023-05-28T01:25:13;102335.13;;;12.94;100.00
69318;BME280;56457;52.190;4.440;2023-05-28T01:26:15;102332.50;;;12.94;100.00
69318;BME280;56457;52.190;4.440;2023-05-28T01:27:15;102329.88;;;12.93;100.00
69318;BME280;56457;52.190;4.440;2023-05-28T01:28:16;102329.88;;;12.93;100.00
69318;BME280;56457;52.190;4.440;2023-05-28T01:29:17;102329.00;;;12.92;100.00
69318;BME280;56457;52.190;4.440;2023-05-28T01:30:17;102331.59;;;12.89;100.00
69318;BME280;56457;52.190;4.440;2023-05-28T01:31:18;102335.97;;;12.87;100.00
69318;BME280;56457;52.190;4.440;2023-05-28T01:32:18;102333.34;;;12.86;100.00
69318;BME280;56457;52.190;4.440;2023-05-28T01:33:19;102330.66;;;12.84;100.00
69318;BME280;56457;52.190;4.440;2023-05-28T01:34:21;102335.94;;;12.81;100.00
69318;BME280;56457;52.190;4.440;2023-05-28T01:35:22;102334.19;;;12.82;100.00
69318;BME280;56457;52.190;4.440;2023-05-28T01:36:30;102333.31;;;12.83;100.00
69318;BME280;56457;52.190;4.440;2023-05-28T01:37:32;102332.44;;;12.82;100.00
69318;BME280;56457;52.190;4.440;2023-05-28T01:38:33;102332.41;;;12.81;100.00
69318;BME280;56457;52.190;4.440;2023-05-28T01:39:37;102330.66;;;12.81;100.00
69318;BME280;56457;52.190;4.440;2023-05-28T01:40:43;102322.75;;;12.81;100.00
69318;BME280;56457;52.190;4.440;2023-05-28T01:41:45;102325.38;;;12.77;100.00
69318;BME280;56457;52.190;4.440;2023-05-28T01:42:45;102324.47;;;12.75;100.00
69318;BME280;56457;52.190;4.440;2023-05-28T01:43:46;102317.47;;;12.74;100.00
69318;BME280;56457;52.190;4.440;2023-05-28T01:44:47;102327.06;;;12.73;100.00
69318;BME280;56457;52.190;4.440;2023-05-28T01:45:47;102327.06;;;12.72;100.00
69318;BME280;56457;52.190;4.440;2023-05-28T01:46:48;102327.94;;;12.69;100.00
69318;BME280;56457;52.190;4.440;2023-05-28T01:47:49;102320.03;;;12.68;100.00
69318;BME280;56457;52.190;4.440;2023-05-28T01:48:50;102333.19;;;12.66;100.00
69318;BME280;56457;52.190;4.440;2023-05-28T01:49:50;102326.16;;;12.65;100.00
69318;BME280;56457;52.190;4.440;2023-05-28T01:50:52;102319.13;;;12.62;100.00
69318;BME280;56457;52.190;4.440;2023-05-28T01:51:52;102319.13;;;12.64;100.00
69318;BME280;56457;52.190;4.440;2023-05-28T01:52:52;102316.50;;;12.65;100.00
69318;BME280;56457;52.190;4.440;2023-05-28T01:53:53;102320.88;;;12.65;100.00
69318;BME280;56457;52.190;4.440;2023-05-28T01:54:53;102323.53;;;12.65;100.00
69318;BME280;56457;52.190;4.440;2023-05-28T01:55:53;102318.22;;;12.59;100.00
69318;BME280;56457;52.190;4.440;2023-05-28T01:56:56;102330.50;;;12.60;100.00
69318;BME280;56457;52.190;4.440;2023-05-28T01:57:56;102327.03;;;12.61;100.00
69318;BME280;56457;52.190;4.440;2023-05-28T01:58:56;102326.13;;;12.60;100.00
69318;BME280;56457;52.190;4.440;2023-05-28T01:59:56;102320.84;;;12.56;100.00
69318;BME280;56457;52.190;4.440;2023-05-28T02:01:02;102326.09;;;12.56;100.00
69318;BME280;56457;52.190;4.440;2023-05-28T02:02:06;102322.53;;;12.51;100.00
69318;BME280;56457;52.190;4.440;2023-05-28T02:03:07;102329.56;;;12.50;100.00
69318;BME280;56457;52.190;4.440;2023-05-28T02:04:11;102327.81;;;12.49;100.00
69318;BME280;56457;52.190;4.440;2023-05-28T02:05:11;102329.56;;;12.49;100.00
69318;BME280;56457;52.190;4.440;2023-05-28T02:06:11;102333.06;;;12.51;100.00
69318;BME280;56457;52.190;4.440;2023-05-28T02:07:12;102332.19;;;12.49;100.00
69318;BME280;56457;52.190;4.440;2023-05-28T02:08:13;102334.78;;;12.46;100.00
69318;BME280;56457;52.190;4.440;2023-05-28T02:09:13;102337.41;;;12.46;100.00
69318;BME280;56457;52.190;4.440;2023-05-28T02:10:14;102339.13;;;12.42;100.00
69318;BME280;56457;52.190;4.440;2023-05-28T02:11:14;102335.59;;;12.40;100.00
69318;BME280;56457;52.190;4.440;2023-05-28T02:12:15;102339.13;;;12.40;100.00
69318;BME280;56457;52.190;4.440;2023-05-28T02:13:15;102332.97;;;12.42;100.00
69318;BME280;56457;52.190;4.440;2023-05-28T02:14:16;102328.59;;;12.39;100.00
69318;BME280;56457;52.190;4.440;2023-05-28T02:15:17;102324.16;;;12.33;100.00
69318;BME280;56457;52.190;4.440;2023-05-28T02:16:17;102331.22;;;12.36;100.00
69318;BME280;56457;52.190;4.440;2023-05-28T02:17:17;102339.94;;;12.33;100.00
69318;BME280;56457;52.190;4.440;2023-05-28T02:18:19;102328.47;;;12.27;100.00
69318;BME280;56457;52.190;4.440;2023-05-28T02:19:19;102333.75;;;12.27;100.00
69318;BME280;56457;52.190;4.440;2023-05-28T02:20:20;102339.00;;;12.28;100.00
69318;BME280;56457;52.190;4.440;2023-05-28T02:21:20;102339.88;;;12.29;100.00
69318;BME280;56457;52.190;4.440;2023-05-28T02:22:21;102343.41;;;12.28;100.00
69318;BME280;56457;52.190;4.440;2023-05-28T02:23:21;102342.50;;;12.26;100.00
69318;BME280;56457;52.190;4.440;2023-05-28T02:24:21;102338.13;;;12.25;100.00
69318;BME280;56457;52.190;4.440;2023-05-28T02:25:22;102331.06;;;12.22;100.00
69318;BME280;56457;52.190;4.440;2023-05-28T02:26:23;102336.31;;;12.22;100.00
69318;BME280;56457;52.190;4.440;2023-05-28T02:27:25;102339.88;;;12.24;100.00
69318;BME280;56457;52.190;4.440;2023-05-28T02:28:25;102339.94;;;12.30;100.00
69318;BME280;56457;52.190;4.440;2023-05-28T02:29:26;102335.50;;;12.28;100.00
69318;BME280;56457;52.190;4.440;2023-05-28T02:30:26;102326.72;;;12.27;100.00
69318;BME280;56457;52.190;4.440;2023-05-28T02:31:26;102336.31;;;12.19;100.00
69318;BME280;56457;52.190;4.440;2023-05-28T02:32:27;102332.81;;;12.20;100.00
69318;BME280;56457;52.190;4.440;2023-05-28T02:33:27;102330.16;;;12.19;100.00
69318;BME280;56457;52.190;4.440;2023-05-28T02:34:27;102331.06;;;12.19;100.00
69318;BME280;56457;52.190;4.440;2023-05-28T02:35:28;102333.69;;;12.21;100.00
69318;BME280;56457;52.190;4.440;2023-05-28T02:36:28;102332.81;;;12.20;100.00
69318;BME280;56457;52.190;4.440;2023-05-28T02:37:29;102337.22;;;12.23;100.00
69318;BME280;56457;52.190;4.440;2023-05-28T02:38:30;102336.31;;;12.21;100.00
69318;BME280;56457;52.190;4.440;2023-05-28T02:39:30;102334.56;;;12.18;100.00
69318;BME280;56457;52.190;4.440;2023-05-28T02:40:31;102337.19;;;12.21;100.00
69318;BME280;56457;52.190;4.440;2023-05-28T02:41:31;102339.81;;;12.18;100.00
69318;BME280;56457;52.190;4.440;2023-05-28T02:42:31;102338.00;;;12.12;100.00
69318;BME280;56457;52.190;4.440;2023-05-28T02:43:32;102334.50;;;12.15;100.00
69318;BME280;56457;52.190;4.440;2023-05-28T02:44:32;102340.63;;;12.12;100.00
69318;BME280;56457;52.190;4.440;2023-05-28T02:45:33;102337.16;;;12.17;100.00
69318;BME280;56457;52.190;4.440;2023-05-28T02:46:33;102332.72;;;12.11;100.00
69318;BME280;56457;52.190;4.440;2023-05-28T02:47:33;102332.69;;;12.08;100.00
69318;BME280;56457;52.190;4.440;2023-05-28T02:48:34;102331.81;;;12.07;100.00
69318;BME280;56457;52.190;4.440;2023-05-28T02:49:34;102331.81;;;12.07;100.00
69318;BME280;56457;52.190;4.440;2023-05-28T02:50:34;102335.34;;;12.09;100.00
69318;BME280;56457;52.190;4.440;2023-05-28T02:51:35;102332.69;;;12.08;100.00
69318;BME280;56457;52.190;4.440;2023-05-28T02:52:35;102334.41;;;12.04;100.00
69318;BME280;56457;52.190;4.440;2023-05-28T02:53:35;102326.50;;;12.03;100.00
69318;BME280;56457;52.190;4.440;2023-05-28T02:54:36;102327.38;;;12.02;100.00
69318;BME280;56457;52.190;4.440;2023-05-28T02:55:36;102326.50;;;12.01;100.00
69318;BME280;56457;52.190;4.440;2023-05-28T02:56:36;102330.00;;;12.00;100.00
69318;BME280;56457;52.190;4.440;2023-05-28T02:57:36;102332.63;;;12.00;100.00
69318;BME280;56457;52.190;4.440;2023-05-28T02:58:37;102325.59;;;11.99;100.00
69318;BME280;56457;52.190;4.440;2023-05-28T02:59:37;102332.63;;;12.02;100.00
69318;BME280;56457;52.190;4.440;2023-05-28T03:00:37;102328.19;;;11.98;100.00
69318;BME280;56457;52.190;4.440;2023-05-28T03:01:38;102330.00;;;11.99;100.00
69318;BME280;56457;52.190;4.440;2023-05-28T03:02:38;102329.94;;;11.96;100.00
69318;BME280;56457;52.190;4.440;2023-05-28T03:03:38;102336.91;;;11.92;100.00
69318;BME280;56457;52.190;4.440;2023-05-28T03:04:39;102331.63;;;11.91;100.00
69318;BME280;56457;52.190;4.440;2023-05-28T03:05:40;102333.38;;;11.89;100.00
69318;BME280;56457;52.190;4.440;2023-05-28T03:06:40;102330.75;;;11.89;100.00
69318;BME280;56457;52.190;4.440;2023-05-28T03:07:41;102330.75;;;11.87;100.00
69318;BME280;56457;52.190;4.440;2023-05-28T03:08:41;102334.25;;;11.88;100.00
69318;BME280;56457;52.190;4.440;2023-05-28T03:09:41;102334.25;;;11.88;100.00
69318;BME280;56457;52.190;4.440;2023-05-28T03:10:42;102325.41;;;11.82;100.00
69318;BME280;56457;52.190;4.440;2023-05-28T03:11:42;102335.06;;;11.82;100.00
69318;BME280;56457;52.190;4.440;2023-05-28T03:12:42;102337.69;;;11.82;100.00
69318;BME280;56457;52.190;4.440;2023-05-28T03:13:43;102338.56;;;11.82;100.00
69318;BME280;56457;52.190;4.440;2023-05-28T03:14:43;102336.81;;;11.81;100.00
69318;BME280;56457;52.190;4.440;2023-05-28T03:15:43;102332.44;;;11.82;100.00
69318;BME280;56457;52.190;4.440;2023-05-28T03:16:43;102337.69;;;11.82;100.00
69318;BME280;56457;52.190;4.440;2023-05-28T03:17:44;102342.91;;;11.80;100.00
69318;BME280;56457;52.190;4.440;2023-05-28T03:18:44;102340.25;;;11.79;100.00
69318;BME280;56457;52.190;4.440;2023-05-28T03:19:44;102337.69;;;11.82;100.00
69318;BME280;56457;52.190;4.440;2023-05-28T03:20:45;102343.81;;;11.82;100.00
69318;BME280;56457;52.190;4.440;2023-05-28T03:21:45;102339.44;;;11.81;100.00
69318;BME280;56457;52.190;4.440;2023-05-28T03:22:46;102329.75;;;11.80;100.00
69318;BME280;56457;52.190;4.440;2023-05-28T03:23:47;102335.84;;;11.79;100.00
69318;BME280;56457;52.190;4.440;2023-05-28T03:24:47;102339.34;;;11.78;100.00
69318;BME280;56457;52.190;4.440;2023-05-28T03:25:47;102330.59;;;11.78;100.00
69318;BME280;56457;52.190;4.440;2023-05-28T03:26:48;102339.34;;;11.75;100.00
69318;BME280;56457;52.190;4.440;2023-05-28T03:27:48;102334.97;;;11.77;100.00
69318;BME280;56457;52.190;4.440;2023-05-28T03:28:48;102328.84;;;11.78;100.00
69318;BME280;56457;52.190;4.440;2023-05-28T03:29:48;102331.47;;;11.78;100.00
69318;BME280;56457;52.190;4.440;2023-05-28T03:30:49;102329.69;;;11.76;100.00
69318;BME280;56457;52.190;4.440;2023-05-28T03:31:49;102323.56;;;11.78;100.00
69318;BME280;56457;52.190;4.440;2023-05-28T03:32:50;102327.97;;;11.78;100.00
69318;BME280;56457;52.190;4.440;2023-05-28T03:33:50;102329.72;;;11.77;100.00
69318;BME280;56457;52.190;4.440;2023-05-28T03:34:50;102331.47;;;11.78;100.00
69318;BME280;56457;52.190;4.440;2023-05-28T03:35:50;102334.97;;;11.77;100.00
69318;BME280;56457;52.190;4.440;2023-05-28T03:36:51;102329.72;;;11.79;100.00
69318;BME280;56457;52.190;4.440;2023-05-28T03:37:51;102335.84;;;11.76;100.00
69318;BME280;56457;52.190;4.440;2023-05-28T03:38:51;102327.97;;;11.78;100.00
69318;BME280;56457;52.190;4.440;2023-05-28T03:39:52;102339.34;;;11.78;100.00
69318;BME280;56457;52.190;4.440;2023-05-28T03:40:52;102343.72;;;11.76;100.00
69318;BME280;56457;52.190;4.440;2023-05-28T03:41:53;102341.97;;;11.75;100.00
69318;BME280;56457;52.190;4.440;2023-05-28T03:42:53;102350.69;;;11.73;100.00
69318;BME280;56457;52.190;4.440;2023-05-28T03:43:53;102348.91;;;11.70;100.00
69318;BME280;56457;52.190;4.440;2023-05-28T03:44:54;102348.84;;;11.64;100.00
69318;BME280;56457;52.190;4.440;2023-05-28T03:45:54;102361.94;;;11.61;100.00
69318;BME280;56457;52.190;4.440;2023-05-28T03:46:54;102357.53;;;11.60;100.00
69318;BME280;56457;52.190;4.440;2023-05-28T03:47:54;102358.47;;;11.64;100.00
69318;BME280;56457;52.190;4.440;2023-05-28T03:48:55;102357.63;;;11.66;100.00
69318;BME280;56457;52.190;4.440;2023-05-28T03:49:55;102355.94;;;11.70;100.00
69318;BME280;56457;52.190;4.440;2023-05-28T03:50:56;102355.94;;;11.71;100.00
69318;BME280;56457;52.190;4.440;2023-05-28T03:51:56;102355.09;;;11.74;100.00
69318;BME280;56457;52.190;4.440;2023-05-28T03:52:57;102346.28;;;11.72;100.00
69318;BME280;56457;52.190;4.440;2023-05-28T03:53:57;102344.53;;;11.71;100.00
69318;BME280;56457;52.190;4.440;2023-05-28T03:54:57;102350.69;;;11.71;100.00
69318;BME280;56457;52.190;4.440;2023-05-28T03:55:58;102348.03;;;11.70;100.00
69318;BME280;56457;52.190;4.440;2023-05-28T03:56:58;102339.28;;;11.69;100.00
69318;BME280;56457;52.190;4.440;2023-05-28T03:57:58;102350.66;;;11.68;100.00
69318;BME280;56457;52.190;4.440;2023-05-28T03:58:59;102338.34;;;11.66;100.00
69318;BME280;56457;52.190;4.440;2023-05-28T03:59:59;102348.03;;;11.68;100.00
69318;BME280;56457;52.190;4.440;2023-05-28T04:01:00;102347.16;;;11.68;100.00
69318;BME280;56457;52.190;4.440;2023-05-28T04:02:00;102347.16;;;11.71;100.00
69318;BME280;56457;52.190;4.440;2023-05-28T04:03:00;102346.28;;;11.70;100.00
69318;BME280;56457;52.190;4.440;2023-05-28T04:04:03;102342.78;;;11.71;100.00
69318;BME280;56457;52.190;4.440;2023-05-28T04:05:03;102349.84;;;11.74;100.00
69318;BME280;56457;52.190;4.440;2023-05-28T04:06:04;102351.59;;;11.75;100.00
69318;BME280;56457;52.190;4.440;2023-05-28T04:07:04;102342.84;;;11.74;100.00
69318;BME280;56457;52.190;4.440;2023-05-28T04:08:05;102336.66;;;11.72;100.00
69318;BME280;56457;52.190;4.440;2023-05-28T04:09:05;102348.94;;;11.73;100.00
69318;BME280;56457;52.190;4.440;2023-05-28T04:10:06;102346.34;;;11.75;100.00
69318;BME280;56457;52.190;4.440;2023-05-28T04:11:07;102346.38;;;11.78;100.00
69318;BME280;56457;52.190;4.440;2023-05-28T04:12:07;102348.97;;;11.75;100.00
69318;BME280;56457;52.190;4.440;2023-05-28T04:13:12;102341.03;;;11.73;100.00
69318;BME280;56457;52.190;4.440;2023-05-28T04:14:12;102343.72;;;11.75;100.00
69318;BME280;56457;52.190;4.440;2023-05-28T04:15:13;102338.47;;;11.75;100.00
69318;BME280;56457;52.190;4.440;2023-05-28T04:16:13;102337.59;;;11.74;100.00
69318;BME280;56457;52.190;4.440;2023-05-28T04:17:13;102334.09;;;11.78;100.00
69318;BME280;56457;52.190;4.440;2023-05-28T04:18:14;102341.13;;;11.79;100.00
69318;BME280;56457;52.190;4.440;2023-05-28T04:19:14;102331.47;;;11.78;100.00
69318;BME280;56457;52.190;4.440;2023-05-28T04:20:14;102334.09;;;11.78;100.00
69318;BME280;56457;52.190;4.440;2023-05-28T04:21:15;102341.97;;;11.77;100.00
69318;BME280;56457;52.190;4.440;2023-05-28T04:22:15;102340.25;;;11.79;100.00
69318;BME280;56457;52.190;4.440;2023-05-28T04:23:15;102341.13;;;11.79;100.00
69318;BME280;56457;52.190;4.440;2023-05-28T04:24:16;102336.72;;;11.78;100.00
69318;BME280;56457;52.190;4.440;2023-05-28T04:25:17;102343.81;;;11.82;100.00
69318;BME280;56457;52.190;4.440;2023-05-28T04:26:18;102336.81;;;11.81;100.00
69318;BME280;56457;52.190;4.440;2023-05-28T04:27:22;102342.94;;;11.82;100.00
69318;BME280;56457;52.190;4.440;2023-05-28T04:28:23;102348.22;;;11.82;100.00
69318;BME280;56457;52.190;4.440;2023-05-28T04:29:28;102341.22;;;11.85;100.00
69318;BME280;56457;52.190;4.440;2023-05-28T04:30:31;102348.22;;;11.85;100.00
69318;BME280;56457;52.190;4.440;2023-05-28T04:31:31;102343.00;;;11.88;100.00
69318;BME280;56457;52.190;4.440;2023-05-28T04:32:32;102343.91;;;11.89;100.00
69318;BME280;56457;52.190;4.440;2023-05-28T04:33:32;102343.88;;;11.87;100.00
69318;BME280;56457;52.190;4.440;2023-05-28T04:34:32;102343.91;;;11.89;100.00
69318;BME280;56457;52.190;4.440;2023-05-28T04:35:33;102350.03;;;11.88;100.00
69318;BME280;56457;52.190;4.440;2023-05-28T04:36:34;102348.34;;;11.93;100.00
69318;BME280;56457;52.190;4.440;2023-05-28T04:37:36;102342.25;;;12.00;100.00
69318;BME280;56457;52.190;4.440;2023-05-28T04:38:39;102351.03;;;11.99;100.00
69318;BME280;56457;52.190;4.440;2023-05-28T04:39:41;102345.84;;;12.06;100.00
69318;BME280;56457;52.190;4.440;2023-05-28T04:40:41;102344.09;;;12.08;100.00
69318;BME280;56457;52.190;4.440;2023-05-28T04:41:41;102349.34;;;12.05;100.00
69318;BME280;56457;52.190;4.440;2023-05-28T04:42:43;102353.75;;;12.08;100.00
69318;BME280;56457;52.190;4.440;2023-05-28T04:43:43;102354.66;;;12.13;100.00
69318;BME280;56457;52.190;4.440;2023-05-28T04:44:45;102358.19;;;12.15;100.00
69318;BME280;56457;52.190;4.440;2023-05-28T04:45:45;102356.47;;;12.19;100.00
69318;BME280;56457;52.190;4.440;2023-05-28T04:46:45;102359.13;;;12.22;100.00
69318;BME280;56457;52.190;4.440;2023-05-28T04:47:47;102354.75;;;12.22;100.00
69318;BME280;56457;52.190;4.440;2023-05-28T04:48:47;102353.03;;;12.26;100.00
69318;BME280;56457;52.190;4.440;2023-05-28T04:49:48;102357.41;;;12.25;100.00
69318;BME280;56457;52.190;4.440;2023-05-28T04:50:48;102359.19;;;12.26;100.00
69318;BME280;56457;52.190;4.440;2023-05-28T04:51:50;102353.94;;;12.29;100.00
69318;BME280;56457;52.190;4.440;2023-05-28T04:52:50;102359.25;;;12.32;100.00
69318;BME280;56457;52.190;4.440;2023-05-28T04:53:50;102357.47;;;12.33;100.00
69318;BME280;56457;52.190;4.440;2023-05-28T04:54:51;102353.09;;;12.33;100.00
69318;BME280;56457;52.190;4.440;2023-05-28T04:55:51;102348.75;;;12.37;100.00
69318;BME280;56457;52.190;4.440;2023-05-28T04:56:52;102363.72;;;12.43;100.00
69318;BME280;56457;52.190;4.440;2023-05-28T04:57:52;102356.72;;;12.45;100.00
69318;BME280;56457;52.190;4.440;2023-05-28T04:58:52;102361.97;;;12.46;100.00
69318;BME280;56457;52.190;4.440;2023-05-28T04:59:53;102363.75;;;12.47;100.00
69318;BME280;56457;52.190;4.440;2023-05-28T05:00:53;102355.84;;;12.47;100.00
69318;BME280;56457;52.190;4.440;2023-05-28T05:01:53;102355.88;;;12.52;100.00
69318;BME280;56457;52.190;4.440;2023-05-28T05:02:53;102355.03;;;12.54;100.00
69318;BME280;56457;52.190;4.440;2023-05-28T05:03:54;102355.94;;;12.59;100.00
69318;BME280;56457;52.190;4.440;2023-05-28T05:04:54;102349.84;;;12.63;100.00
69318;BME280;56457;52.190;4.440;2023-05-28T05:05:57;102355.13;;;12.65;100.00
69318;BME280;56457;52.190;4.440;2023-05-28T05:06:57;102352.47;;;12.66;100.00
69318;BME280;56457;52.190;4.440;2023-05-28T05:07:57;102349.84;;;12.65;100.00
69318;BME280;56457;52.190;4.440;2023-05-28T05:08:57;102351.59;;;12.64;100.00
69318;BME280;56457;52.190;4.440;2023-05-28T05:09:58;102356.00;;;12.65;100.00
69318;BME280;56457;52.190;4.440;2023-05-28T05:10:59;102356.91;;;12.68;100.00
69318;BME280;56457;52.190;4.440;2023-05-28T05:12:00;102356.97;;;12.74;100.00
69318;BME280;56457;52.190;4.440;2023-05-28T05:13:00;102355.16;;;12.73;100.00
69318;BME280;56457;52.190;4.440;2023-05-28T05:14:01;102354.31;;;12.74;100.00